Time;durP1;ratioP1;P1;durP2;ratioP2;P2;SDS_P1;SDS_P2;PMS_P1;PMS_P2;Temp;Humidity;BMP_temperature;BMP_pressure;BME280_temperature;BME280_humidity;BME280_pressure;Samples;Min_cycle;Max_cycle;Signal;HPM_P1;HPM_P2
2021/05/21 00:01:05;;;;;;;2.72;1.50;;;;;;;13.39;52.75;98908.78;5070115;28;20033;-66
2021/05/21 00:03:30;;;;;;;2.08;1.40;;;;;;;13.43;52.83;98901.47;5070512;28;20032;-66
2021/05/21 00:05:56;;;;;;;2.08;1.55;;;;;;;13.42;52.68;98902.44;5070193;28;20410;-66
2021/05/21 00:08:21;;;;;;;2.58;1.52;;;;;;;13.42;52.87;98894.50;5070368;28;20037;-67
2021/05/21 00:10:46;;;;;;;3.90;1.40;;;;;;;13.41;52.62;98895.44;5070696;28;20071;-67
2021/05/21 00:13:12;;;;;;;1.55;1.23;;;;;;;13.38;53.40;98893.03;5069552;28;20041;-66
2021/05/21 00:15:37;;;;;;;3.10;1.50;;;;;;;13.36;52.55;98887.00;5069151;28;20028;-67
2021/05/21 00:18:03;;;;;;;3.75;1.55;;;;;;;13.34;53.46;98886.25;5068194;28;20131;-66
2021/05/21 00:20:28;;;;;;;2.35;1.38;;;;;;;13.32;53.23;98887.22;5069632;28;20181;-67
2021/05/21 00:22:54;;;;;;;3.15;1.60;;;;;;;13.31;53.53;98879.38;5069294;28;20036;-67
2021/05/21 00:25:19;;;;;;;1.92;1.20;;;;;;;13.30;52.98;98875.91;5069436;28;20052;-67
2021/05/21 00:27:44;;;;;;;2.97;1.70;;;;;;;13.29;53.54;98882.16;5069220;28;20486;-67
2021/05/21 00:30:10;;;;;;;3.22;1.30;;;;;;;13.29;52.99;98881.31;5069389;28;20040;-66
2021/05/21 00:32:36;;;;;;;2.72;1.10;;;;;;;13.30;53.31;98877.72;5068819;28;20048;-66
2021/05/21 00:35:01;;;;;;;2.08;1.13;;;;;;;13.32;53.30;98879.28;5069282;28;20058;-67
2021/05/21 00:37:27;;;;;;;2.10;1.23;;;;;;;13.32;53.67;98865.22;5069000;28;20545;-67
2021/05/21 00:39:52;;;;;;;4.03;1.23;;;;;;;13.31;53.05;98853.78;5050772;28;20036;-66
2021/05/21 00:42:17;;;;;;;2.75;1.20;;;;;;;13.32;53.42;98855.47;5069495;28;20115;-66
2021/05/21 00:44:43;;;;;;;3.60;1.52;;;;;;;13.33;53.39;98843.06;5068626;28;20067;-66
2021/05/21 00:47:08;;;;;;;4.03;1.30;;;;;;;13.34;53.03;98838.59;5067541;28;20028;-67
2021/05/21 00:49:33;;;;;;;1.77;1.33;;;;;;;13.35;53.48;98835.84;5069103;28;20037;-66
2021/05/21 00:52:02;;;;;;;1.75;1.20;;;;;;;13.37;52.64;98841.03;5069084;28;20116;-67
2021/05/21 00:54:27;;;;;;;4.05;1.30;;;;;;;13.36;53.27;98834.03;5054666;28;20109;-66
2021/05/21 00:56:52;;;;;;;3.25;1.52;;;;;;;13.39;53.13;98818.78;5048481;28;20536;-67
2021/05/21 00:59:18;;;;;;;3.97;1.50;;;;;;;13.37;52.78;98817.22;5048916;28;20496;-67
2021/05/21 01:01:45;;;;;;;3.35;1.70;;;;;;;13.35;53.34;98809.38;5023360;28;20128;-67
2021/05/21 01:04:12;;;;;;;3.88;1.20;;;;;;;13.29;53.88;98808.06;5048491;28;20041;-66
2021/05/21 01:06:38;;;;;;;5.75;1.30;;;;;;;13.28;53.49;98802.88;5065096;28;20089;-67
2021/05/21 01:09:03;;;;;;;3.13;1.40;;;;;;;13.30;53.32;98800.94;5068341;28;20123;-67
2021/05/21 01:11:28;;;;;;;2.55;1.50;;;;;;;13.30;53.44;98790.34;5068998;28;20419;-68
2021/05/21 01:13:54;;;;;;;3.90;1.40;;;;;;;13.30;53.26;98790.34;5068286;28;20044;-66
2021/05/21 01:16:19;;;;;;;3.08;1.30;;;;;;;13.30;53.53;98790.34;5068806;28;20137;-66
2021/05/21 01:18:45;;;;;;;6.50;1.75;;;;;;;13.29;54.00;98773.66;5069144;28;20029;-67
2021/05/21 01:21:11;;;;;;;3.28;1.52;;;;;;;13.33;53.44;98779.53;5072203;28;20036;-67
2021/05/21 01:23:36;;;;;;;3.70;1.45;;;;;;;13.31;52.95;98778.81;5072813;28;20036;-67
2021/05/21 01:26:02;;;;;;;2.13;1.20;;;;;;;13.31;53.24;98763.78;5068775;28;20119;-67
2021/05/21 01:28:28;;;;;;;3.40;1.50;;;;;;;13.29;53.54;98755.13;5072484;28;20503;-67
2021/05/21 01:30:54;;;;;;;4.20;1.38;;;;;;;13.25;53.19;98753.63;5072431;28;20041;-67
2021/05/21 01:33:20;;;;;;;1.48;1.30;;;;;;;13.23;53.72;98744.13;5072613;28;20496;-67
2021/05/21 01:35:46;;;;;;;1.65;1.10;;;;;;;13.22;53.57;98748.56;5071386;28;20116;-67
2021/05/21 01:38:12;;;;;;;1.98;1.20;;;;;;;13.25;53.63;98750.13;5071541;28;20035;-67
2021/05/21 01:40:39;;;;;;;4.38;2.15;;;;;;;13.19;54.00;98750.59;5071492;28;20047;-67
2021/05/21 01:43:05;;;;;;;2.90;1.30;;;;;;;13.18;53.70;98744.47;5071400;28;20040;-67
2021/05/21 01:45:30;;;;;;;2.28;1.40;;;;;;;13.14;54.49;98744.81;5071583;28;20045;-67
2021/05/21 01:47:57;;;;;;;2.15;1.42;;;;;;;13.11;54.08;98736.13;5071199;28;20041;-67
2021/05/21 01:50:23;;;;;;;4.82;1.42;;;;;;;13.08;53.99;98733.75;5071562;28;20036;-67
2021/05/21 01:52:48;;;;;;;4.65;2.13;;;;;;;13.07;54.42;98732.06;5071272;28;20040;-68
2021/05/21 01:55:14;;;;;;;2.33;1.42;;;;;;;13.05;54.03;98735.78;5066227;28;20753;-67
2021/05/21 01:57:40;;;;;;;5.15;1.65;;;;;;;13.02;54.33;98726.28;5071938;28;20055;-67
2021/05/21 02:00:08;;;;;;;2.17;1.33;;;;;;;12.99;54.36;98731.78;5071741;28;20593;-67
2021/05/21 02:02:35;;;;;;;3.53;1.58;;;;;;;12.97;54.42;98722.28;5072129;28;20060;-67
2021/05/21 02:05:00;;;;;;;5.15;1.70;;;;;;;12.92;54.29;98717.38;5075743;28;20064;-67
2021/05/21 02:07:26;;;;;;;4.85;1.67;;;;;;;12.90;54.56;98716.63;5075803;28;20040;-67
2021/05/21 02:09:58;;;;;;;2.35;1.88;;;;;;;12.88;54.79;98719.38;5074828;28;20047;-66
2021/05/21 02:12:25;;;;;;;3.60;1.48;;;;;;;12.88;55.20;98710.63;5071310;28;20040;-67
2021/05/21 02:14:51;;;;;;;5.78;1.80;;;;;;;12.86;54.73;98718.66;5071780;28;20044;-67
2021/05/21 02:17:16;;;;;;;4.80;1.73;;;;;;;12.84;55.28;98707.34;5071292;28;20035;-66
2021/05/21 02:19:42;;;;;;;3.35;1.67;;;;;;;12.82;55.23;98705.78;5071457;28;20036;-67
2021/05/21 02:22:08;;;;;;;3.22;1.45;;;;;;;12.80;55.48;98700.63;5071970;28;20082;-67
2021/05/21 02:24:34;;;;;;;2.13;1.30;;;;;;;12.79;55.30;98688.34;5071273;28;20074;-67
2021/05/21 02:26:59;;;;;;;3.88;1.40;;;;;;;12.77;55.27;98698.19;5070945;28;20094;-67
2021/05/21 02:29:25;;;;;;;7.18;1.75;;;;;;;12.75;55.82;98692.19;5071561;28;20032;-67
2021/05/21 02:31:50;;;;;;;2.72;1.20;;;;;;;12.72;56.04;98686.28;5068792;28;20054;-67
2021/05/21 02:34:16;;;;;;;1.85;1.30;;;;;;;12.71;55.87;98681.97;5070764;28;20045;-68
2021/05/21 02:36:41;;;;;;;2.25;1.60;;;;;;;12.70;55.84;98688.19;5070379;28;20045;-68
2021/05/21 02:39:07;;;;;;;3.20;1.50;;;;;;;12.68;55.37;98685.69;5070948;28;20051;-67
2021/05/21 02:41:32;;;;;;;2.90;1.50;;;;;;;12.70;55.84;98686.41;5071150;28;20055;-67
2021/05/21 02:43:58;;;;;;;4.82;1.55;;;;;;;12.68;55.41;98681.22;5070619;28;20457;-67
2021/05/21 02:46:23;;;;;;;5.97;1.55;;;;;;;12.68;56.23;98680.38;5070796;28;20036;-67
2021/05/21 02:48:49;;;;;;;4.03;1.60;;;;;;;12.63;56.19;98683.38;5071421;28;20040;-66
2021/05/21 02:51:14;;;;;;;2.30;1.45;;;;;;;12.62;55.99;98683.47;5071187;28;20028;-67
2021/05/21 02:53:39;;;;;;;5.57;1.50;;;;;;;12.59;55.87;98681.91;5070319;28;20039;-67
2021/05/21 02:56:05;;;;;;;2.75;1.65;;;;;;;12.60;55.78;98683.63;5070132;28;20060;-67
2021/05/21 02:58:30;;;;;;;3.60;1.30;;;;;;;12.58;55.63;98669.66;5070431;28;20111;-67
2021/05/21 03:00:55;;;;;;;6.40;2.10;;;;;;;12.59;56.12;98673.16;5070586;28;20090;-67
2021/05/21 03:03:21;;;;;;;5.05;1.90;;;;;;;12.58;56.45;98667.03;5070684;28;20032;-67
2021/05/21 03:05:46;;;;;;;2.08;1.35;;;;;;;12.58;56.57;98668.81;5070132;28;20516;-67
2021/05/21 03:08:12;;;;;;;6.20;1.55;;;;;;;12.60;56.23;98664.25;5070273;28;20042;-67
2021/05/21 03:10:37;;;;;;;4.35;1.58;;;;;;;12.57;56.86;98659.19;5070213;28;20040;-67
2021/05/21 03:13:03;;;;;;;2.63;1.40;;;;;;;12.56;56.46;98649.59;5070258;28;20118;-67
2021/05/21 03:15:29;;;;;;;2.13;1.42;;;;;;;12.55;56.27;98651.41;5068132;28;20052;-67
2021/05/21 03:17:55;;;;;;;4.63;1.67;;;;;;;12.54;56.48;98654.97;5051366;28;20032;-67
2021/05/21 03:20:21;;;;;;;4.35;1.65;;;;;;;12.54;57.08;98644.41;5068979;28;20025;-67
2021/05/21 03:22:46;;;;;;;3.88;1.30;;;;;;;12.56;57.10;98649.59;5070123;28;20108;-68
2021/05/21 03:25:12;;;;;;;4.07;1.48;;;;;;;12.54;56.63;98641.75;5069833;28;20135;-67
2021/05/21 03:27:37;;;;;;;3.38;1.70;;;;;;;12.51;57.06;98647.28;5070009;28;20028;-67
2021/05/21 03:30:05;;;;;;;7.35;2.20;;;;;;;12.52;56.57;98640.19;5055277;28;20043;-67
2021/05/21 03:32:31;;;;;;;4.43;1.85;;;;;;;12.51;56.80;98636.72;5069178;28;20057;-67
2021/05/21 03:34:56;;;;;;;2.35;1.20;;;;;;;12.50;57.04;98629.72;5069642;28;20067;-67
2021/05/21 03:37:22;;;;;;;15.77;3.85;;;;;;;12.48;57.37;98628.16;5052111;28;20059;-67
2021/05/21 03:39:47;;;;;;;4.18;1.30;;;;;;;12.47;57.18;98632.59;5070115;28;20060;-67
2021/05/21 03:42:13;;;;;;;3.05;1.55;;;;;;;12.44;57.37;98638.13;5070025;28;20098;-67
2021/05/21 03:44:38;;;;;;;2.45;1.50;;;;;;;12.43;57.37;98629.38;5069678;28;20036;-67
2021/05/21 03:47:04;;;;;;;1.42;1.20;;;;;;;12.42;57.82;98619.72;5069710;28;20418;-67
2021/05/21 03:49:30;;;;;;;1.98;1.25;;;;;;;12.41;57.61;98615.41;5069473;28;20028;-67
2021/05/21 03:51:56;;;;;;;5.85;1.70;;;;;;;12.42;57.76;98617.09;5069551;28;20033;-68
2021/05/21 03:54:22;;;;;;;2.55;1.33;;;;;;;12.42;57.67;98610.97;5069987;28;20040;-67
2021/05/21 03:56:48;;;;;;;2.15;1.55;;;;;;;12.40;57.95;98612.88;5069712;28;20047;-67
2021/05/21 03:59:13;;;;;;;2.03;1.30;;;;;;;12.38;57.90;98618.31;5069561;28;20033;-68
2021/05/21 04:01:39;;;;;;;2.58;1.33;;;;;;;12.38;58.26;98620.94;5050607;28;20043;-68
2021/05/21 04:04:05;;;;;;;4.15;1.52;;;;;;;12.37;57.57;98618.41;5069317;28;20087;-68
2021/05/21 04:06:31;;;;;;;2.58;1.60;;;;;;;12.36;57.65;98617.56;5070055;28;20186;-68
2021/05/21 04:08:58;;;;;;;5.50;1.50;;;;;;;12.31;58.08;98613.59;5070703;28;20033;-68
2021/05/21 04:11:23;;;;;;;7.68;1.92;;;;;;;12.31;58.06;98610.94;5069987;28;20111;-67
2021/05/21 04:13:49;;;;;;;2.67;1.77;;;;;;;12.31;57.96;98608.31;5070170;28;20158;-68
2021/05/21 04:16:14;;;;;;;6.18;1.73;;;;;;;12.32;58.18;98608.19;5068985;28;20028;-68
2021/05/21 04:18:40;;;;;;;19.00;5.15;;;;;;;12.32;58.41;98602.06;5069514;28;20035;-67
2021/05/21 04:21:06;;;;;;;4.95;1.90;;;;;;;12.31;58.57;98600.38;5069328;28;20036;-68
2021/05/21 04:23:31;;;;;;;5.80;1.80;;;;;;;12.32;58.54;98594.97;5069429;28;20025;-67
2021/05/21 04:25:57;;;;;;;4.57;1.98;;;;;;;12.34;58.28;98584.28;5069112;28;20032;-68
2021/05/21 04:28:22;;;;;;;3.35;1.70;;;;;;;12.33;58.61;98591.38;5069676;28;20031;-67
2021/05/21 04:30:48;;;;;;;4.05;1.77;;;;;;;12.37;58.35;98602.53;5068915;28;20116;-67
2021/05/21 04:33:13;;;;;;;3.53;1.50;;;;;;;12.38;57.99;98591.88;5069164;28;20169;-66
2021/05/21 04:35:39;;;;;;;5.38;1.95;;;;;;;12.40;58.32;98586.44;5069132;28;20028;-66
2021/05/21 04:38:04;;;;;;;2.40;1.58;;;;;;;12.44;58.01;98594.03;5069792;28;20115;-68
2021/05/21 04:40:29;;;;;;;2.40;1.60;;;;;;;12.50;58.15;98591.88;5069506;28;20052;-68
2021/05/21 04:42:55;;;;;;;1.90;1.23;;;;;;;12.58;58.08;98589.50;5069117;28;20064;-68
2021/05/21 04:45:20;;;;;;;3.42;1.75;;;;;;;12.59;57.45;98580.59;5069055;28;20051;-68
2021/05/21 04:47:46;;;;;;;6.40;1.48;;;;;;;12.62;57.50;98575.91;5068979;28;20056;-69
2021/05/21 04:50:11;;;;;;;3.17;1.83;;;;;;;12.66;57.92;98582.66;5068773;28;20032;-67
2021/05/21 04:52:37;;;;;;;5.47;2.03;;;;;;;12.75;57.67;98577.59;5068894;28;20032;-69
2021/05/21 04:55:03;;;;;;;5.88;1.63;;;;;;;12.84;57.38;98574.25;5068603;28;20032;-67
2021/05/21 04:57:28;;;;;;;3.30;1.70;;;;;;;12.90;56.98;98581.72;5068688;28;20108;-68
2021/05/21 04:59:53;;;;;;;4.93;1.60;;;;;;;13.04;57.21;98580.63;5068655;28;20062;-68
2021/05/21 05:02:19;;;;;;;6.00;2.20;;;;;;;13.21;56.15;98574.00;5069619;28;20039;-67
2021/05/21 05:04:44;;;;;;;11.38;1.60;;;;;;;13.49;55.49;98570.88;5068194;28;20067;-67
2021/05/21 05:07:10;;;;;;;5.72;2.55;;;;;;;13.52;54.86;98567.13;5050537;28;20112;-67
2021/05/21 05:09:35;;;;;;;2.35;1.48;;;;;;;13.69;54.82;98571.06;5068826;28;20036;-66
2021/05/21 05:12:00;;;;;;;3.40;1.85;;;;;;;13.72;54.48;98562.84;5071270;28;20090;-68
2021/05/21 05:14:26;;;;;;;3.47;1.98;;;;;;;13.83;54.49;98556.66;5068466;28;20089;-67
2021/05/21 05:16:51;;;;;;;2.55;1.80;;;;;;;13.90;54.05;98553.38;5057861;28;20100;-68
2021/05/21 05:19:16;;;;;;;6.50;1.77;;;;;;;13.90;53.98;98548.09;5067958;28;20036;-67
2021/05/21 05:21:43;;;;;;;4.13;1.73;;;;;;;13.91;54.19;98555.09;5068776;28;20040;-67
2021/05/21 05:24:13;;;;;;;4.03;2.00;;;;;;;13.83;53.91;98549.59;5068746;28;20040;-68
2021/05/21 05:26:39;;;;;;;12.55;3.22;;;;;;;13.66;53.85;98542.16;5068058;28;20046;-67
2021/05/21 05:29:04;;;;;;;8.05;2.53;;;;;;;13.56;53.93;98547.41;5068102;28;20119;-67
2021/05/21 05:31:31;;;;;;;13.20;2.58;;;;;;;13.60;54.39;98551.44;5068438;28;20029;-65
2021/05/21 05:33:56;;;;;;;7.75;2.05;;;;;;;13.58;54.23;98545.44;5068404;28;20070;-66
2021/05/21 05:36:22;;;;;;;15.82;3.20;;;;;;;13.56;54.76;98552.69;5068610;28;20527;-66
2021/05/21 05:38:47;;;;;;;9.95;2.40;;;;;;;13.48;54.69;98532.09;5050029;28;20036;-66
2021/05/21 05:41:12;;;;;;;9.30;2.22;;;;;;;13.47;54.45;98545.47;5047469;28;20480;-66
2021/05/21 05:43:38;;;;;;;7.18;3.45;;;;;;;13.42;54.59;98537.06;5067955;28;20400;-68
2021/05/21 05:46:04;;;;;;;5.78;2.58;;;;;;;13.43;54.51;98544.88;5049795;28;20048;-67
2021/05/21 05:48:30;;;;;;;11.35;2.40;;;;;;;13.52;54.38;98543.31;5068194;28;20115;-67
2021/05/21 05:50:56;;;;;;;6.03;2.33;;;;;;;13.55;53.94;98542.22;5067913;28;20036;-67
2021/05/21 05:53:21;;;;;;;9.18;2.22;;;;;;;13.60;53.93;98551.44;5068246;28;20045;-67
2021/05/21 05:55:47;;;;;;;9.30;2.67;;;;;;;13.71;54.21;98550.59;5067623;28;20036;-68
2021/05/21 05:58:12;;;;;;;8.38;2.47;;;;;;;13.82;53.34;98542.59;5066659;28;20040;-68
2021/05/21 06:00:38;;;;;;;5.60;2.50;;;;;;;13.83;53.38;98546.94;5066410;28;20028;-67
2021/05/21 06:03:08;;;;;;;5.88;1.70;;;;;;;13.98;53.31;98542.19;5067992;28;20033;-68
2021/05/21 06:05:34;;;;;;;7.07;2.53;;;;;;;14.10;52.69;98545.59;5067738;28;20502;-67
2021/05/21 06:08:01;;;;;;;7.10;2.45;;;;;;;14.20;52.52;98543.00;5071413;28;20032;-67
2021/05/21 06:10:27;;;;;;;9.48;3.45;;;;;;;14.32;52.16;98528.72;5071198;28;20032;-67
2021/05/21 06:13:01;;;;;;;7.47;2.88;;;;;;;14.32;52.35;98532.22;5071951;28;20162;-67
2021/05/21 06:15:27;;;;;;;8.40;2.70;;;;;;;14.31;52.36;98530.53;5071184;28;20052;-68
2021/05/21 06:17:54;;;;;;;10.85;3.45;;;;;;;14.31;52.23;98525.22;5072379;28;20067;-66
2021/05/21 06:20:20;;;;;;;17.58;4.03;;;;;;;14.25;52.14;98540.81;5068694;28;20085;-66
2021/05/21 06:22:45;;;;;;;12.50;3.47;;;;;;;14.11;52.06;98518.97;5071736;28;20044;-66
2021/05/21 06:25:11;;;;;;;6.68;2.38;;;;;;;14.30;52.68;98528.00;5070979;28;20379;-66
2021/05/21 06:27:37;;;;;;;12.52;3.92;;;;;;;14.40;51.90;98518.31;5071305;28;20055;-66
2021/05/21 06:30:06;;;;;;;18.30;5.03;;;;;;;14.37;51.64;98531.81;5071309;28;20044;-66
2021/05/21 06:32:31;;;;;;;7.20;2.72;;;;;;;14.57;51.45;98525.69;5071261;28;20095;-67
2021/05/21 06:34:57;;;;;;;5.18;2.28;;;;;;;14.85;50.60;98528.63;5053136;28;20428;-67
2021/05/21 06:37:22;;;;;;;6.70;2.70;;;;;;;14.87;50.28;98536.44;5065926;28;20040;-67
2021/05/21 06:39:47;;;;;;;8.82;2.83;;;;;;;15.19;49.11;98517.69;5053660;28;20037;-67
2021/05/21 06:42:13;;;;;;;8.63;2.67;;;;;;;15.37;48.61;98531.16;5064327;28;20029;-68
2021/05/21 06:44:38;;;;;;;7.13;2.70;;;;;;;15.38;48.18;98530.16;5061013;28;20040;-68
2021/05/21 06:47:04;;;;;;;8.48;2.70;;;;;;;15.62;47.26;98529.78;5062170;28;20041;-68
2021/05/21 06:49:32;;;;;;;8.00;2.97;;;;;;;15.62;48.04;98527.94;5068840;28;20190;-68
2021/05/21 06:51:57;;;;;;;8.82;2.72;;;;;;;15.27;48.33;98528.47;5065011;28;20455;-68
2021/05/21 06:54:22;;;;;;;9.05;3.40;;;;;;;14.98;49.63;98521.25;5060741;28;20044;-68
2021/05/21 06:56:48;;;;;;;8.57;2.78;;;;;;;14.75;49.97;98522.44;5061690;28;20175;-69
2021/05/21 06:59:13;;;;;;;8.88;2.35;;;;;;;14.57;49.68;98532.78;5058959;28;20033;-67
2021/05/21 07:01:39;;;;;;;4.25;2.38;;;;;;;14.58;49.40;98531.84;5060855;28;20021;-66
2021/05/21 07:04:04;;;;;;;8.20;2.70;;;;;;;14.60;49.54;98545.81;5048451;28;20036;-68
2021/05/21 07:06:29;;;;;;;9.13;3.03;;;;;;;14.47;49.19;98534.53;5061583;28;20029;-68
2021/05/21 07:08:55;;;;;;;15.38;3.45;;;;;;;14.62;48.21;98535.91;5064557;28;20053;-62
2021/05/21 07:11:20;;;;;;;15.25;3.63;;;;;;;15.33;46.87;98543.00;5070753;28;20056;-62
2021/05/21 07:13:46;;;;;;;9.98;2.97;;;;;;;15.99;44.92;98540.59;5035050;28;20505;-62
2021/05/21 07:16:11;;;;;;;10.38;3.92;;;;;;;16.65;42.79;98541.59;5069757;28;20472;-62
2021/05/21 07:18:36;;;;;;;19.27;4.38;;;;;;;16.84;41.42;98551.38;5070446;28;20056;-63
2021/05/21 07:21:02;;;;;;;15.25;3.35;;;;;;;17.24;40.71;98548.41;5069463;28;20111;-61
2021/05/21 07:23:29;;;;;;;55.97;11.02;;;;;;;17.85;38.46;98532.75;5069263;28;20436;-61
2021/05/21 07:25:54;;;;;;;9.27;3.42;;;;;;;18.41;37.50;98535.03;5070196;28;20040;-61
2021/05/21 07:28:20;;;;;;;17.48;3.65;;;;;;;18.37;37.62;98535.50;5070366;28;20407;-59
2021/05/21 07:30:45;;;;;;;15.15;4.28;;;;;;;19.33;35.51;98538.03;5070206;28;20044;-62
2021/05/21 07:33:11;;;;;;;12.75;3.22;;;;;;;18.41;36.33;98532.38;5069836;28;20119;-60
2021/05/21 07:35:37;;;;;;;18.00;3.92;;;;;;;17.81;37.15;98545.53;5069774;28;20024;-62
2021/05/21 07:38:03;;;;;;;11.05;3.63;;;;;;;18.36;35.96;98544.50;5070197;28;20206;-61
2021/05/21 07:40:28;;;;;;;6.88;3.47;;;;;;;18.80;35.17;98536.47;5072233;28;20028;-63
2021/05/21 07:42:54;;;;;;;12.95;3.35;;;;;;;18.12;35.67;98542.50;5057411;28;20412;-62
2021/05/21 07:45:20;;;;;;;8.23;3.90;;;;;;;17.57;37.53;98549.63;5062931;28;20064;-61
2021/05/21 07:47:45;;;;;;;21.60;4.43;;;;;;;16.91;38.00;98548.00;5061005;28;20036;-69
2021/05/21 07:50:11;;;;;;;13.30;3.67;;;;;;;17.62;36.98;98541.13;5064622;28;20029;-68
2021/05/21 07:52:36;;;;;;;11.50;3.95;;;;;;;17.88;35.96;98533.28;5064114;28;20040;-68
2021/05/21 07:55:05;;;;;;;8.02;3.65;;;;;;;17.54;36.83;98543.72;5064662;28;20041;-69
2021/05/21 07:57:31;;;;;;;11.90;3.03;;;;;;;17.47;37.04;98532.00;5064617;28;20496;-69
2021/05/21 07:59:57;;;;;;;8.38;3.85;;;;;;;17.64;36.92;98539.16;5062825;28;20033;-68
2021/05/21 08:02:22;;;;;;;9.20;2.83;;;;;;;17.80;36.20;98544.69;5063974;28;20500;-68
2021/05/21 08:04:48;;;;;;;16.48;3.53;;;;;;;18.39;35.40;98538.88;5063795;28;20044;-68
2021/05/21 08:07:13;;;;;;;10.70;3.97;;;;;;;18.76;34.16;98540.47;5060717;28;20561;-68
2021/05/21 08:09:40;;;;;;;15.90;4.38;;;;;;;19.05;33.47;98524.06;5063090;28;20125;-68
2021/05/21 08:12:06;;;;;;;11.32;3.50;;;;;;;19.60;32.31;98528.94;5063001;28;20089;-68
2021/05/21 08:14:32;;;;;;;11.15;3.63;;;;;;;20.26;31.03;98534.38;5063449;28;20032;-68
2021/05/21 08:16:58;;;;;;;20.83;4.45;;;;;;;20.45;30.65;98538.50;5063192;28;20712;-68
2021/05/21 08:19:23;;;;;;;9.63;4.50;;;;;;;19.43;31.64;98529.88;5064446;28;20056;-68
2021/05/21 08:21:50;;;;;;;9.23;3.22;;;;;;;19.63;31.80;98538.44;5063773;28;20045;-70
2021/05/21 08:24:15;;;;;;;16.10;4.63;;;;;;;19.23;32.30;98538.16;5064086;28;20036;-70
2021/05/21 08:26:41;;;;;;;9.45;3.60;;;;;;;19.07;32.76;98549.66;5064068;28;20040;-69
2021/05/21 08:29:06;;;;;;;13.02;4.07;;;;;;;18.00;34.36;98545.38;5063629;28;20463;-68
2021/05/21 08:31:32;;;;;;;16.45;4.47;;;;;;;18.36;34.45;98540.00;5064084;28;20499;-69
2021/05/21 08:33:57;;;;;;;8.10;3.45;;;;;;;17.99;35.71;98535.72;5062749;28;20052;-69
2021/05/21 08:36:23;;;;;;;9.13;2.40;;;;;;;17.77;38.78;98542.31;5063664;28;20662;-48
2021/05/21 08:38:49;;;;;;;9.18;3.72;;;;;;;17.71;37.33;98540.25;5063543;28;20037;-49
2021/05/21 08:41:23;;;;;;;12.32;3.83;;;;;;;17.54;36.89;98539.22;5063507;28;20496;-49
2021/05/21 08:43:49;;;;;;;12.05;3.53;;;;;;;17.98;34.08;98539.34;5052897;28;20040;-46
2021/05/21 08:46:16;;;;;;;9.43;3.50;;;;;;;17.91;33.55;98537.47;5050800;28;20081;-48
2021/05/21 08:48:42;;;;;;;12.77;3.28;;;;;;;18.40;32.37;98560.03;5033898;28;20043;-45
2021/05/21 08:51:09;;;;;;;13.52;4.13;;;;;;;18.91;31.77;98538.88;5064056;28;20036;-48
2021/05/21 08:53:38;;;;;;;14.70;4.00;;;;;;;18.61;31.47;98527.66;5063120;28;20269;-47
2021/05/21 08:56:06;;;;;;;9.93;3.78;;;;;;;18.95;31.65;98536.69;5063676;28;20041;-52
2021/05/21 08:58:32;;;;;;;9.57;3.08;;;;;;;19.05;30.86;98543.63;5045589;28;20037;-69
2021/05/21 09:00:57;;;;;;;11.40;5.47;;;;;;;19.18;31.06;98537.81;5045228;28;20090;-69
2021/05/21 09:03:25;;;;;;;11.40;3.83;;;;;;;18.81;31.39;98546.16;5053285;28;20052;-70
2021/05/21 09:08:47;;;;;;;13.68;4.22;;;;;;;18.24;30.39;98546.59;5065165;28;20028;-69
2021/05/21 09:11:28;;;;;;;5.53;2.75;;;;;;;18.85;30.17;98534.16;5063457;28;20052;-69
2021/05/21 09:14:18;;;;;;;11.07;3.22;;;;;;;19.27;29.95;98518.16;5066578;28;20067;-70
2021/05/21 09:16:45;;;;;;;16.58;4.03;;;;;;;19.62;29.55;98537.63;5053858;28;20041;-68
2021/05/21 09:19:17;;;;;;;19.80;4.60;;;;;;;20.17;28.49;98538.88;5063482;28;20060;-68
2021/05/21 09:22:06;;;;;;;12.25;3.35;;;;;;;20.55;28.54;98525.81;5063018;28;20048;-69
2021/05/21 09:24:32;;;;;;;11.88;3.60;;;;;;;21.30;27.74;98525.41;5063007;28;20095;-68
2021/05/21 09:26:59;;;;;;;7.60;3.72;;;;;;;21.61;26.72;98532.66;5062523;28;20058;-69
2021/05/21 09:29:41;;;;;;;9.75;3.63;;;;;;;21.47;26.53;98526.19;5063490;28;20075;-69
2021/05/21 09:32:22;;;;;;;11.00;4.55;;;;;;;22.07;26.02;98512.00;5062569;28;20120;-68
2021/05/21 09:35:16;;;;;;;14.02;4.68;;;;;;;22.04;25.95;98522.28;5063331;28;22739;-67
2021/05/21 09:37:52;;;;;;;21.52;5.32;;;;;;;22.28;26.14;98521.28;5064942;28;20127;-68
2021/05/21 09:40:24;;;;;;;13.77;4.97;;;;;;;22.77;25.84;98528.84;5063339;28;20044;-68
2021/05/21 09:42:50;;;;;;;12.52;4.88;;;;;;;22.26;26.14;98531.34;5066355;28;20044;-68
2021/05/21 09:45:26;;;;;;;10.60;3.60;;;;;;;22.47;26.45;98538.69;5065826;28;20036;-69
2021/05/21 09:47:56;;;;;;;10.00;4.63;;;;;;;22.93;25.60;98546.63;5062024;28;20071;-69
2021/05/21 09:50:40;;;;;;;10.45;4.93;;;;;;;22.58;25.70;98535.59;5064220;28;20048;-70
2021/05/21 09:53:25;;;;;;;13.32;3.00;;;;;;;21.26;28.15;98552.72;5065852;28;20063;-69
2021/05/21 09:55:50;;;;;;;15.43;4.28;;;;;;;20.08;29.52;98547.91;5065654;28;20060;-70
2021/05/21 09:58:40;;;;;;;10.07;4.53;;;;;;;21.40;27.95;98541.31;5063909;28;20538;-69
2021/05/21 10:01:09;;;;;;;12.70;4.50;;;;;;;22.06;27.04;98534.50;5066444;28;20148;-70
2021/05/21 10:03:36;;;;;;;10.15;4.25;;;;;;;22.33;26.30;98535.00;5065337;28;20046;-69
2021/05/21 10:06:03;;;;;;;10.38;3.28;;;;;;;22.40;26.07;98535.94;5065674;28;20037;-69
2021/05/21 10:08:29;;;;;;;9.00;3.33;;;;;;;21.62;26.85;98524.41;5066392;28;20028;-71
2021/05/21 10:10:56;;;;;;;13.82;4.15;;;;;;;21.03;28.01;98532.06;5066152;28;20067;-69
2021/05/21 10:13:22;;;;;;;11.27;3.92;;;;;;;21.80;27.38;98534.84;5048633;28;20048;-70
2021/05/21 10:15:49;;;;;;;10.20;3.20;;;;;;;20.89;27.81;98525.56;5065672;28;20455;-69
2021/05/21 10:18:15;;;;;;;10.70;3.53;;;;;;;22.06;26.61;98521.09;5048393;28;20033;-68
2021/05/21 10:20:44;;;;;;;12.93;4.53;;;;;;;22.18;26.11;98517.97;5065838;28;20029;-68
2021/05/21 10:23:17;;;;;;;9.90;3.60;;;;;;;22.44;25.93;98521.09;5066463;28;20440;-68
2021/05/21 10:25:43;;;;;;;8.68;3.97;;;;;;;22.62;25.67;98520.78;5062379;28;20041;-69
2021/05/21 10:28:10;;;;;;;17.52;4.00;;;;;;;21.27;26.99;98530.28;5066073;28;20036;-68
2021/05/21 10:30:36;;;;;;;13.07;3.70;;;;;;;20.93;27.56;98537.59;5065883;28;20570;-68
2021/05/21 10:33:22;;;;;;;10.32;3.20;;;;;;;19.66;30.01;98532.78;5065301;28;20044;-70
2021/05/21 10:35:48;;;;;;;12.25;3.92;;;;;;;19.02;31.27;98527.88;5065078;28;20668;-69
2021/05/21 10:38:20;;;;;;;16.85;4.57;;;;;;;20.55;29.03;98529.34;5047745;28;20752;-68
2021/05/21 10:40:45;;;;;;;7.95;3.17;;;;;;;21.12;28.32;98528.34;5069849;28;20094;-69
2021/05/21 10:43:15;;;;;;;12.60;3.47;;;;;;;21.42;28.08;98517.84;5070714;28;20037;-69
2021/05/21 10:45:55;;;;;;;9.82;3.60;;;;;;;21.40;27.07;98511.81;5069007;28;20044;-70
2021/05/21 10:48:28;;;;;;;7.80;2.90;;;;;;;20.44;29.02;98504.72;5068157;28;20043;-69
2021/05/21 10:51:08;;;;;;;8.73;2.85;;;;;;;20.22;29.50;98515.13;5070297;28;20500;-69
2021/05/21 10:53:39;;;;;;;9.45;3.63;;;;;;;20.07;29.18;98508.78;5069536;28;20510;-68
2021/05/21 10:56:05;;;;;;;15.70;4.97;;;;;;;19.27;30.77;98506.59;5053140;28;20124;-68
2021/05/21 10:58:35;;;;;;;16.40;4.93;;;;;;;19.20;30.81;98505.59;5052949;28;20195;-68
2021/05/21 11:01:07;;;;;;;27.15;4.50;;;;;;;19.04;31.14;98503.69;5070890;28;20037;-69
2021/05/21 11:03:58;;;;;;;14.55;3.58;;;;;;;18.40;32.10;98493.31;5071271;28;20043;-69
2021/05/21 11:06:29;;;;;;;7.53;3.15;;;;;;;18.42;32.56;98498.50;5072980;28;20044;-69
2021/05/21 11:09:31;;;;;;;14.10;3.55;;;;;;;18.80;32.22;98485.72;5072504;28;20032;-69
2021/05/21 11:12:05;;;;;;;10.30;3.65;;;;;;;18.92;32.75;98487.13;4989682;28;20034;-68
2021/05/21 11:14:34;;;;;;;13.43;3.58;;;;;;;19.04;32.29;98509.03;5058319;28;20091;-69
2021/05/21 11:17:14;;;;;;;17.85;3.78;;;;;;;18.63;31.93;98484.78;5070208;28;20060;-68
2021/05/21 11:20:10;;;;;;;9.07;3.78;;;;;;;18.51;32.27;98481.56;5070333;28;20047;-68
2021/05/21 11:22:36;;;;;;;10.25;3.38;;;;;;;18.74;31.81;98486.34;5067351;28;20032;-68
2021/05/21 11:25:01;;;;;;;10.88;3.65;;;;;;;18.72;31.88;98480.31;5070435;28;20454;-69
2021/05/21 11:27:31;;;;;;;16.15;3.28;;;;;;;18.30;32.23;98468.59;5069480;28;20041;-69
2021/05/21 11:29:57;;;;;;;11.25;4.15;;;;;;;18.12;32.43;98487.31;5070654;28;20036;-70
2021/05/21 11:32:26;;;;;;;5.40;2.30;;;;;;;18.07;32.86;98464.78;5069389;28;20037;-69
2021/05/21 11:34:52;;;;;;;11.88;3.75;;;;;;;18.39;32.34;98477.50;5060753;28;20032;-68